Time;durP1;ratioP1;P1;durP2;ratioP2;P2;SDS_P1;SDS_P2;PMS_P1;PMS_P2;Temp;Humidity;BMP_temperature;BMP_pressure;BME280_temperature;BME280_humidity;BME280_pressure;Samples;Min_cycle;Max_cycle;Signal;HPM_P1;HPM_P2
2023/01/01 00:01:07;;;;;;;1404.97;243.65;;;11.20;99.90;;;;;;6220394;23;20066;-91
2023/01/01 00:03:35;;;;;;;1676.70;318.42;;;11.30;99.90;;;;;;6195388;23;20011;-93
2023/01/01 00:06:05;;;;;;;1325.28;270.00;;;11.20;99.90;;;;;;6221186;23;20018;-94
2023/01/01 00:08:34;;;;;;;1420.50;553.22;;;11.10;99.90;;;;;;6207810;23;20012;-92
2023/01/01 00:11:06;;;;;;;1999.90;794.70;;;11.00;99.90;;;;;;6193337;22;20389;-91
2023/01/01 00:13:37;;;;;;;1010.40;256.10;;;10.90;99.90;;;;;;6257173;22;20007;-91
2023/01/01 00:16:16;;;;;;;516.20;117.82;;;10.80;99.90;;;;;;6252298;22;20440;-92
2023/01/01 00:18:42;;;;;;;514.85;124.15;;;10.70;99.90;;;;;;6251743;22;20011;-91
2023/01/01 00:21:14;;;;;;;491.25;128.80;;;10.70;99.90;;;;;;6251094;22;20012;-91
2023/01/01 00:23:40;;;;;;;521.42;128.85;;;10.70;99.90;;;;;;6251072;22;20029;-91
2023/01/01 00:26:12;;;;;;;399.75;115.15;;;10.70;99.90;;;;;;6255823;22;20015;-92
2023/01/01 00:28:39;;;;;;;364.45;91.43;;;10.60;99.90;;;;;;6282180;22;20090;-92
2023/01/01 00:31:11;;;;;;;413.65;101.68;;;10.70;99.90;;;;;;6282141;22;20003;-92
2023/01/01 00:33:38;;;;;;;477.98;105.28;;;10.70;99.90;;;;;;6308242;22;20011;-90
2023/01/01 00:36:07;;;;;;;389.08;94.55;;;10.70;99.90;;;;;;6282193;22;20011;-92
2023/01/01 00:38:35;;;;;;;430.00;100.57;;;10.70;99.90;;;;;;6282217;22;20018;-90
2023/01/01 00:41:03;;;;;;;518.28;114.47;;;10.80;99.90;;;;;;6282180;22;20033;-92
2023/01/01 00:43:30;;;;;;;668.03;123.25;;;10.80;99.90;;;;;;6283443;22;20003;-91
2023/01/01 00:45:57;;;;;;;633.60;108.65;;;10.80;99.90;;;;;;6281897;22;20046;-91
2023/01/01 00:48:24;;;;;;;550.95;106.57;;;10.80;99.90;;;;;;6282760;22;20003;-91
2023/01/01 00:50:51;;;;;;;506.17;102.07;;;10.80;99.90;;;;;;6282978;22;20316;-91
2023/01/01 00:53:20;;;;;;;423.95;87.40;;;10.90;99.90;;;;;;6283109;22;20007;-92
2023/01/01 00:55:50;;;;;;;387.50;95.22;;;11.00;99.90;;;;;;6257124;22;20053;-92
2023/01/01 00:58:18;;;;;;;313.73;79.80;;;11.10;99.90;;;;;;6281814;22;20007;-92
2023/01/01 01:00:45;;;;;;;262.58;77.18;;;11.20;99.90;;;;;;6281830;22;20015;-93
2023/01/01 01:03:29;;;;;;;249.73;79.57;;;11.30;99.90;;;;;;6282024;22;20037;-92
2023/01/01 01:06:09;;;;;;;290.38;84.25;;;11.40;99.90;;;;;;6282219;22;20008;-92
2023/01/01 01:08:40;;;;;;;230.90;75.07;;;11.40;99.90;;;;;;6281882;22;20014;-91
2023/01/01 01:11:12;;;;;;;263.17;77.82;;;11.40;99.90;;;;;;6281951;22;20082;-92
2023/01/01 01:13:41;;;;;;;249.98;75.78;;;11.30;99.90;;;;;;6281874;22;20437;-91
2023/01/01 01:16:34;;;;;;;257.20;76.32;;;11.40;99.90;;;;;;6281342;22;20009;-92
2023/01/01 01:19:04;;;;;;;232.23;74.88;;;11.30;99.90;;;;;;6277593;22;20015;-93
2023/01/01 01:21:32;;;;;;;386.40;103.38;;;11.20;99.90;;;;;;6281758;22;20047;-91
2023/01/01 01:24:01;;;;;;;495.55;104.40;;;11.10;99.90;;;;;;6281915;22;20031;-90
2023/01/01 01:26:31;;;;;;;480.08;113.15;;;11.00;99.90;;;;;;6281924;22;20014;-89
2023/01/01 01:28:58;;;;;;;492.38;100.25;;;10.80;99.90;;;;;;6281399;22;20008;-90
2023/01/01 01:31:28;;;;;;;464.42;92.88;;;10.70;99.90;;;;;;6281578;22;20011;-89
2023/01/01 01:33:56;;;;;;;376.30;88.97;;;10.60;99.90;;;;;;6281685;22;20007;-89
2023/01/01 01:36:24;;;;;;;417.52;103.00;;;10.60;99.90;;;;;;6281516;22;20003;-89
2023/01/01 01:38:51;;;;;;;363.40;95.00;;;10.50;99.90;;;;;;6281727;22;20011;-89
2023/01/01 01:41:21;;;;;;;313.42;87.20;;;10.40;99.90;;;;;;6281660;22;20050;-90
2023/01/01 01:44:00;;;;;;;333.17;93.40;;;10.40;99.90;;;;;;6307295;22;20038;-90
2023/01/01 01:46:35;;;;;;;432.95;105.78;;;10.40;99.90;;;;;;6280813;22;20019;-89
2023/01/01 01:49:04;;;;;;;;;;;10.40;99.90;;;;;;6255678;22;20038;-89
2023/01/01 01:51:38;;;;;;;519.53;122.47;;;10.40;99.90;;;;;;6280560;22;19902;-88
2023/01/01 01:54:09;;;;;;;;;;;10.40;99.90;;;;;;6255670;22;20003;-88
2023/01/01 01:56:51;;;;;;;419.63;120.20;;;10.30;99.90;;;;;;6280206;22;19903;-89
2023/01/01 01:59:19;;;;;;;298.38;107.90;;;10.40;99.90;;;;;;6280811;22;20012;-89
2023/01/01 02:01:46;;;;;;;373.95;113.57;;;10.30;99.90;;;;;;6254918;22;20015;-88
2023/01/01 02:04:15;;;;;;;375.35;114.60;;;10.30;99.90;;;;;;6280714;22;20012;-89
2023/01/01 02:06:43;;;;;;;436.08;126.00;;;10.30;99.90;;;;;;6255098;22;20463;-88
2023/01/01 02:09:10;;;;;;;368.55;115.63;;;10.30;99.90;;;;;;6255114;22;20321;-89
2023/01/01 02:11:37;;;;;;;271.77;102.35;;;10.30;99.90;;;;;;6255364;22;20007;-89
2023/01/01 02:14:05;;;;;;;300.90;104.40;;;10.30;99.90;;;;;;6280630;22;20007;-90
2023/01/01 02:16:38;;;;;;;406.75;115.03;;;10.30;99.90;;;;;;6255068;22;20011;-88
2023/01/01 02:19:12;;;;;;;473.92;123.70;;;10.30;99.90;;;;;;6255195;22;20007;-89
2023/01/01 02:22:07;;;;;;;491.70;124.32;;;10.40;99.90;;;;;;6255024;22;20022;-88
2023/01/01 02:24:59;;;;;;;473.33;122.18;;;10.40;99.90;;;;;;6275202;22;20077;-89
2023/01/01 02:28:07;;;;;;;379.58;110.55;;;10.40;99.90;;;;;;6282004;22;20007;-89
2023/01/01 02:30:40;;;;;;;454.30;120.05;;;10.40;99.90;;;;;;6310100;22;20031;-93
2023/01/01 02:33:19;;;;;;;343.80;104.68;;;10.50;99.90;;;;;;6284853;22;20061;-93
2023/01/01 02:36:03;;;;;;;390.90;113.35;;;10.50;99.90;;;;;;6284834;22;20003;-94
2023/01/01 02:38:38;;;;;;;391.75;109.07;;;10.50;99.90;;;;;;6283899;22;20003;-93
2023/01/01 02:41:31;;;;;;;359.98;103.82;;;10.50;99.90;;;;;;6283066;22;20015;-92
2023/01/01 02:43:58;;;;;;;313.63;97.40;;;10.50;99.90;;;;;;6282809;22;20030;-95
2023/01/01 02:46:34;;;;;;;273.05;93.40;;;10.50;99.90;;;;;;6283487;22;20022;-94
2023/01/01 02:49:02;;;;;;;290.55;92.00;;;10.50;99.90;;;;;;6283340;22;20018;-94
2023/01/01 02:52:05;;;;;;;244.63;86.05;;;10.50;99.90;;;;;;6283329;22;20090;-92
2023/01/01 02:55:06;;;;;;;289.98;88.53;;;10.50;99.90;;;;;;6283465;22;20049;-92
2023/01/01 02:57:50;;;;;;;225.48;81.00;;;10.60;99.90;;;;;;6282940;22;20007;-93
2023/01/01 03:00:23;;;;;;;244.73;79.63;;;10.60;99.90;;;;;;6283344;22;20003;-92
2023/01/01 03:03:20;;;;;;;238.93;79.03;;;10.60;99.90;;;;;;6283284;22;20014;-93
2023/01/01 03:06:25;;;;;;;272.73;84.45;;;10.60;99.90;;;;;;6282942;22;20007;-94
2023/01/01 03:09:34;;;;;;;256.83;85.28;;;10.60;99.90;;;;;;6283114;22;20344;-92
2023/01/01 03:12:05;;;;;;;220.13;76.53;;;10.60;99.90;;;;;;6283498;22;20011;-92
2023/01/01 03:14:55;;;;;;;263.88;83.53;;;10.70;99.90;;;;;;6285340;22;20070;-92
2023/01/01 03:17:35;;;;;;;234.90;82.43;;;10.70;99.90;;;;;;6285983;22;20023;-92
2023/01/01 03:20:07;;;;;;;247.20;81.93;;;10.70;99.90;;;;;;6283193;22;20330;-93
2023/01/01 03:22:40;;;;;;;205.35;74.22;;;10.70;99.90;;;;;;6282792;22;20011;-93
2023/01/01 03:25:17;;;;;;;205.40;75.65;;;10.70;99.90;;;;;;6308576;22;20011;-94
2023/01/01 03:27:59;;;;;;;211.85;75.80;;;10.70;99.90;;;;;;6282758;22;20010;-93
2023/01/01 03:30:29;;;;;;;220.38;78.88;;;10.80;99.90;;;;;;6282956;22;20100;-92
2023/01/01 03:33:04;;;;;;;219.30;75.88;;;10.80;99.90;;;;;;6282994;22;20011;-91
2023/01/01 03:35:48;;;;;;;241.32;81.68;;;10.80;99.90;;;;;;6282972;22;20035;-93
2023/01/01 03:38:35;;;;;;;276.08;82.32;;;10.90;99.90;;;;;;6282814;22;20433;-94
2023/01/01 03:41:14;;;;;;;364.92;87.82;;;10.90;99.90;;;;;;6308259;22;20018;-94
2023/01/01 03:43:51;;;;;;;536.55;100.40;;;10.90;99.90;;;;;;6282578;22;20027;-93
2023/01/01 03:46:24;;;;;;;297.55;83.63;;;10.90;99.90;;;;;;6226440;22;20450;-92
2023/01/01 03:48:59;;;;;;;372.98;89.15;;;10.90;99.90;;;;;;6226763;22;20007;-94
2023/01/01 03:51:44;;;;;;;374.35;87.32;;;10.90;99.90;;;;;;6226590;22;20042;-91
2023/01/01 03:54:26;;;;;;;361.73;85.22;;;10.90;99.90;;;;;;6226659;22;20011;-93
2023/01/01 03:57:20;;;;;;;279.65;79.05;;;10.80;99.90;;;;;;6226565;22;20061;-92
2023/01/01 04:00:15;;;;;;;400.73;89.63;;;10.80;99.90;;;;;;6225852;22;20341;-93
2023/01/01 04:02:50;;;;;;;489.20;96.82;;;10.80;99.90;;;;;;6226856;22;20460;-93
2023/01/01 04:05:19;;;;;;;281.75;79.57;;;10.80;99.90;;;;;;6227090;22;20011;-92
2023/01/01 04:07:46;;;;;;;358.65;86.47;;;10.80;99.90;;;;;;6227018;22;20082;-93
2023/01/01 04:10:17;;;;;;;391.00;87.35;;;10.80;99.90;;;;;;6243658;22;20091;-94
2023/01/01 04:12:50;;;;;;;361.52;87.65;;;10.80;99.90;;;;;;6227207;22;20008;-92
2023/01/01 04:15:20;;;;;;;379.67;90.95;;;10.80;99.90;;;;;;6227336;22;20011;-93
2023/01/01 04:17:47;;;;;;;383.38;91.57;;;10.80;99.90;;;;;;6226372;22;20358;-92
2023/01/01 04:20:14;;;;;;;414.63;95.55;;;10.80;99.90;;;;;;6226257;22;20065;-92
2023/01/01 04:22:40;;;;;;;247.38;79.90;;;10.80;99.90;;;;;;6226929;22;20066;-93
2023/01/01 04:25:11;;;;;;;323.83;88.63;;;10.80;99.90;;;;;;6227045;22;20329;-92
2023/01/01 04:27:39;;;;;;;233.30;77.40;;;10.80;99.90;;;;;;6226301;22;20425;-94
2023/01/01 04:30:12;;;;;;;302.17;86.28;;;10.80;99.90;;;;;;6226167;22;20030;-93
2023/01/01 04:32:39;;;;;;;269.27;82.25;;;10.80;99.90;;;;;;6251378;22;20438;-94
2023/01/01 04:35:07;;;;;;;212.30;74.68;;;10.90;99.90;;;;;;6225671;22;20011;-94
2023/01/01 04:37:37;;;;;;;225.15;74.32;;;10.90;99.90;;;;;;6226326;22;20035;-94
2023/01/01 04:40:05;;;;;;;266.83;78.45;;;10.90;99.90;;;;;;6225833;22;20004;-92
2023/01/01 04:42:32;;;;;;;201.73;71.57;;;11.00;99.90;;;;;;6225907;22;20012;-92
2023/01/01 04:44:58;;;;;;;208.55;71.85;;;11.00;99.90;;;;;;6250844;22;20019;-93
2023/01/01 04:47:28;;;;;;;201.23;67.15;;;11.10;99.90;;;;;;6282044;22;20017;-92
2023/01/01 04:49:54;;;;;;;226.63;72.45;;;11.20;99.90;;;;;;6282034;22;20370;-92
2023/01/01 04:52:21;;;;;;;215.55;70.70;;;11.40;99.90;;;;;;6282028;22;20165;-94
2023/01/01 04:54:49;;;;;;;214.63;69.28;;;11.30;99.90;;;;;;6281826;22;20094;-93
2023/01/01 04:57:19;;;;;;;230.93;74.40;;;11.30;99.90;;;;;;6281955;22;20062;-92
2023/01/01 04:59:47;;;;;;;361.15;87.65;;;11.30;99.90;;;;;;6282046;22;20011;-93
2023/01/01 05:02:13;;;;;;;218.45;73.25;;;11.20;99.90;;;;;;6281744;22;20463;-93
2023/01/01 05:04:40;;;;;;;222.27;70.00;;;11.20;99.90;;;;;;6281863;22;20052;-94
2023/01/01 05:07:07;;;;;;;289.13;80.38;;;11.10;99.90;;;;;;6281815;22;20011;-92
2023/01/01 05:09:33;;;;;;;207.85;70.28;;;11.10;99.90;;;;;;6281910;22;20011;-91
2023/01/01 05:12:00;;;;;;;285.23;73.07;;;11.10;99.90;;;;;;6281873;22;20018;-93
2023/01/01 05:14:27;;;;;;;230.40;64.93;;;11.10;99.90;;;;;;6281895;22;20006;-93
2023/01/01 05:16:54;;;;;;;472.77;90.32;;;11.10;99.90;;;;;;6282076;22;20037;-93
2023/01/01 05:19:21;;;;;;;366.85;79.65;;;11.00;99.90;;;;;;6282022;22;19999;-92
2023/01/01 05:21:47;;;;;;;427.80;89.97;;;10.80;99.90;;;;;;6281860;22;20019;-91
2023/01/01 05:24:14;;;;;;;275.20;77.25;;;10.70;99.90;;;;;;6281605;22;19999;-91
2023/01/01 05:26:44;;;;;;;354.23;81.85;;;10.60;99.90;;;;;;6307403;22;20035;-92
2023/01/01 05:29:11;;;;;;;263.23;74.65;;;10.50;99.90;;;;;;6281766;22;19999;-93
2023/01/01 05:31:40;;;;;;;289.38;75.95;;;10.50;99.90;;;;;;6281938;22;20011;-94
2023/01/01 05:34:07;;;;;;;271.42;72.72;;;10.50;99.90;;;;;;6282322;22;20086;-92
2023/01/01 05:36:37;;;;;;;224.43;65.22;;;10.50;99.90;;;;;;6281956;22;20090;-93
2023/01/01 05:39:13;;;;;;;215.60;66.05;;;10.40;99.90;;;;;;6281971;22;20082;-93
2023/01/01 05:41:40;;;;;;;303.90;70.72;;;10.40;99.90;;;;;;6281906;22;20046;-94
2023/01/01 05:44:08;;;;;;;338.85;72.28;;;10.40;99.90;;;;;;6282062;22;20006;-92
2023/01/01 05:46:41;;;;;;;239.63;70.15;;;10.40;99.90;;;;;;6282081;22;20068;-94
2023/01/01 05:49:10;;;;;;;340.63;74.43;;;10.30;99.90;;;;;;6282139;22;20003;-93
2023/01/01 05:51:37;;;;;;;322.67;71.90;;;10.40;99.90;;;;;;6282804;22;20459;-92
2023/01/01 05:54:06;;;;;;;227.63;64.82;;;10.50;99.90;;;;;;6281881;22;20003;-94
2023/01/01 05:56:33;;;;;;;479.33;81.93;;;10.50;99.90;;;;;;6281048;22;20011;-94
2023/01/01 05:59:01;;;;;;;360.15;76.03;;;10.60;99.90;;;;;;6255754;22;20006;-94
2023/01/01 06:01:30;;;;;;;363.38;73.50;;;10.60;99.90;;;;;;6255622;22;20038;-94
2023/01/01 06:03:58;;;;;;;409.42;83.88;;;10.70;99.90;;;;;;6258917;22;20078;-93
2023/01/01 06:06:27;;;;;;;312.25;75.05;;;10.70;99.90;;;;;;6260055;22;20019;-93
2023/01/01 06:09:00;;;;;;;225.05;65.35;;;10.70;99.90;;;;;;6260061;22;20003;-92
2023/01/01 06:11:28;;;;;;;203.57;66.90;;;10.80;99.90;;;;;;6257015;22;20196;-92
2023/01/01 06:13:57;;;;;;;198.68;64.47;;;10.80;99.90;;;;;;6256826;22;20010;-93
2023/01/01 06:16:25;;;;;;;228.95;67.13;;;10.80;99.90;;;;;;6257098;22;20498;-92
2023/01/01 06:18:52;;;;;;;273.77;71.57;;;10.80;99.90;;;;;;6256709;22;20013;-92
2023/01/01 06:21:21;;;;;;;214.85;64.07;;;10.80;99.90;;;;;;6282375;22;20022;-93
2023/01/01 06:23:48;;;;;;;226.45;69.22;;;10.80;99.90;;;;;;6256893;22;20006;-92
2023/01/01 06:26:21;;;;;;;214.38;65.05;;;10.80;99.90;;;;;;6284534;22;20097;-91
2023/01/01 06:28:49;;;;;;;173.88;61.55;;;10.80;99.90;;;;;;6283585;22;20014;-93
2023/01/01 06:31:19;;;;;;;224.55;67.35;;;10.80;99.90;;;;;;6283147;22;20010;-94
2023/01/01 06:33:47;;;;;;;207.98;66.78;;;10.80;99.90;;;;;;6283105;22;20444;-92
2023/01/01 06:36:16;;;;;;;190.75;63.03;;;10.80;99.90;;;;;;6283370;22;20003;-93
2023/01/01 06:38:45;;;;;;;190.85;63.25;;;10.90;99.90;;;;;;6283125;22;20003;-95
2023/01/01 06:41:15;;;;;;;182.48;61.30;;;10.90;99.90;;;;;;6283527;22;20086;-93
2023/01/01 06:43:43;;;;;;;193.93;64.57;;;11.10;99.90;;;;;;6283532;22;20336;-95
2023/01/01 06:46:15;;;;;;;169.93;59.58;;;11.20;99.90;;;;;;6282999;22;20049;-93
2023/01/01 06:48:47;;;;;;;185.32;61.33;;;11.30;99.90;;;;;;6284383;22;20532;-94
2023/01/01 06:51:23;;;;;;;155.48;59.00;;;11.30;99.90;;;;;;6284180;22;20003;-94
2023/01/01 06:53:51;;;;;;;172.70;61.63;;;11.40;99.90;;;;;;6283679;22;20039;-93
2023/01/01 06:56:18;;;;;;;154.13;60.33;;;11.40;99.90;;;;;;6283619;22;20003;-93
2023/01/01 06:58:48;;;;;;;153.45;55.53;;;11.40;99.90;;;;;;6283241;22;20011;-92
2023/01/01 07:01:25;;;;;;;147.07;54.15;;;11.40;99.90;;;;;;6283361;22;20015;-95
2023/01/01 07:04:04;;;;;;;326.70;68.28;;;11.40;99.90;;;;;;6283244;22;20007;-93
2023/01/01 07:06:31;;;;;;;230.75;62.25;;;11.40;99.90;;;;;;6284195;22;20011;-94
2023/01/01 07:08:58;;;;;;;334.73;69.32;;;11.50;99.90;;;;;;6285011;22;20081;-94
2023/01/01 07:11:25;;;;;;;317.88;62.15;;;11.50;99.90;;;;;;6283083;22;20011;-94
2023/01/01 07:13:52;;;;;;;540.60;78.63;;;11.50;99.90;;;;;;6282267;22;20003;-92
2023/01/01 07:16:23;;;;;;;404.85;68.50;;;11.50;99.90;;;;;;6283450;22;20007;-91
2023/01/01 07:18:50;;;;;;;301.88;58.25;;;11.70;99.90;;;;;;6283425;22;20010;-92
2023/01/01 07:21:26;;;;;;;487.33;68.75;;;11.70;99.90;;;;;;6283099;22;20097;-93
2023/01/01 07:23:55;;;;;;;308.00;57.72;;;11.80;99.90;;;;;;6283360;22;20356;-93
2023/01/01 07:26:31;;;;;;;474.15;69.30;;;11.90;99.90;;;;;;6282945;22;20102;-92
2023/01/01 07:28:59;;;;;;;430.10;66.18;;;11.80;99.90;;;;;;6283447;22;20029;-92
2023/01/01 07:31:26;;;;;;;395.13;62.30;;;11.90;99.90;;;;;;6251977;22;20091;-93
2023/01/01 07:33:53;;;;;;;319.75;59.72;;;11.90;99.90;;;;;;6251422;22;20058;-92
2023/01/01 07:36:20;;;;;;;337.80;60.92;;;12.00;99.90;;;;;;6226404;22;20417;-92
2023/01/01 07:38:47;;;;;;;334.00;61.75;;;12.20;99.90;;;;;;6226055;22;20452;-93
2023/01/01 07:41:14;;;;;;;352.67;61.10;;;12.40;99.90;;;;;;6225728;22;20019;-94
2023/01/01 07:43:41;;;;;;;232.52;52.88;;;12.50;99.90;;;;;;6251732;22;20007;-93
2023/01/01 07:46:11;;;;;;;280.88;55.97;;;12.60;99.90;;;;;;6225616;22;20020;-92
2023/01/01 07:48:39;;;;;;;236.15;52.40;;;12.80;99.90;;;;;;6225733;22;20087;-92
2023/01/01 07:51:06;;;;;;;220.45;50.05;;;12.80;99.90;;;;;;6225861;22;20433;-93
2023/01/01 07:53:33;;;;;;;245.15;50.55;;;12.80;99.90;;;;;;6225899;22;20031;-94
2023/01/01 07:55:59;;;;;;;135.82;44.25;;;12.80;99.90;;;;;;6225665;22;20007;-92
2023/01/01 07:58:26;;;;;;;182.93;48.33;;;12.90;99.90;;;;;;6225560;22;20007;-92
2023/01/01 08:00:53;;;;;;;115.53;43.90;;;13.00;99.90;;;;;;6225508;22;20337;-91
2023/01/01 08:03:32;;;;;;;121.00;43.17;;;13.20;99.90;;;;;;6225747;22;20086;-92
2023/01/01 08:06:09;;;;;;;106.25;44.28;;;13.30;99.90;;;;;;6225681;22;20086;-93
2023/01/01 08:08:36;;;;;;;106.03;42.80;;;13.40;99.90;;;;;;6245705;22;20007;-92
2023/01/01 08:11:03;;;;;;;94.55;43.78;;;13.50;99.90;;;;;;6282521;22;20007;-92
2023/01/01 08:13:30;;;;;;;82.85;39.75;;;13.80;99.90;;;;;;6282221;22;20023;-93
2023/01/01 08:15:58;;;;;;;67.18;35.83;;;13.90;99.90;;;;;;6282327;22;20035;-92
2023/01/01 08:18:24;;;;;;;77.70;38.10;;;13.90;99.90;;;;;;6282006;22;20042;-92
2023/01/01 08:20:53;;;;;;;77.20;38.47;;;14.00;99.90;;;;;;6281885;22;20178;-92
2023/01/01 08:23:19;;;;;;;74.43;37.20;;;14.00;99.90;;;;;;6282148;22;20497;-91
2023/01/01 08:25:46;;;;;;;77.72;38.88;;;14.10;99.90;;;;;;6282018;22;20467;-91
2023/01/01 08:28:12;;;;;;;79.75;41.38;;;14.20;99.90;;;;;;6283117;22;20003;-94
2023/01/01 08:30:39;;;;;;;79.93;39.95;;;14.30;99.90;;;;;;6284184;22;20533;-93
2023/01/01 08:33:06;;;;;;;84.68;38.58;;;14.20;99.90;;;;;;6282607;22;20021;-91
2023/01/01 08:35:36;;;;;;;76.03;37.95;;;14.20;99.90;;;;;;6282101;22;20432;-91
2023/01/01 08:38:03;;;;;;;73.88;36.38;;;14.10;99.90;;;;;;6281932;22;20035;-93
2023/01/01 08:40:29;;;;;;;68.88;37.00;;;14.20;99.90;;;;;;6282428;22;20302;-91
2023/01/01 08:42:59;;;;;;;72.88;37.60;;;14.30;99.90;;;;;;6281114;22;20011;-91
2023/01/01 08:45:26;;;;;;;67.05;36.53;;;14.30;99.90;;;;;;6255242;22;20019;-92
2023/01/01 08:47:53;;;;;;;62.08;36.38;;;14.30;99.90;;;;;;6281299;22;20011;-92
2023/01/01 08:50:20;;;;;;;74.32;36.17;;;14.40;99.90;;;;;;6281333;22;20478;-91
2023/01/01 08:52:46;;;;;;;54.20;35.72;;;14.50;99.90;;;;;;6256000;22;20003;-90
2023/01/01 08:55:13;;;;;;;50.35;33.20;;;14.60;99.90;;;;;;6280947;22;20008;-92
2023/01/01 08:57:43;;;;;;;48.83;33.40;;;14.90;99.90;;;;;;6255794;22;20014;-93
2023/01/01 09:00:12;;;;;;;49.85;33.00;;;15.00;99.90;;;;;;6281199;22;20432;-93
2023/01/01 09:02:39;;;;;;;53.15;36.35;;;15.20;99.90;;;;;;6255094;22;20015;-92
2023/01/01 10:06:06;;;;;;;29.95;23.10;;;15.70;99.90;;;;;;6281582;22;20453;-93
2023/01/01 10:08:43;;;;;;;23.93;21.40;;;15.70;99.90;;;;;;6229014;22;20433;-93
2023/01/01 10:11:31;;;;;;;21.80;16.40;;;15.80;99.90;;;;;;6228138;22;20303;-95
2023/01/01 10:14:01;;;;;;;19.98;17.02;;;16.00;99.90;;;;;;6228188;22;20003;-93
2023/01/01 10:24:14;;;;;;;21.63;18.92;;;16.40;99.90;;;;;;6310121;22;20081;-92
2023/01/01 10:32:16;;;;;;;;;;;;;;;;;;;;;
2023/01/01 10:35:29;;;;;;;;;;;;;;;;;;;;;
2023/01/01 10:39:17;;;;;;;;;;;;;;;;;;;;;
2023/01/01 10:42:20;;;;;;;;;;;;;;;;;;;;;
2023/01/01 11:00:35;;;;;;;17.90;15.98;;;15.90;99.90;;;;;;6042036;23;19906;-94
2023/01/01 11:03:47;;;;;;;21.38;18.65;;;16.20;99.90;;;;;;6075356;23;20444;-95
2023/01/01 11:07:03;;;;;;;21.60;19.40;;;16.50;99.90;;;;;;6076161;23;20010;-93
2023/01/01 11:09:50;;;;;;;18.35;15.95;;;16.70;99.90;;;;;;6027812;23;20086;-94
2023/01/01 11:13:07;;;;;;;19.00;17.20;;;16.50;99.90;;;;;;6043597;23;20015;-93
2023/01/01 11:16:39;;;;;;;21.08;18.67;;;16.20;99.90;;;;;;6015318;23;20136;-93
2023/01/01 11:19:57;;;;;;;17.27;15.57;;;16.20;99.90;;;;;;6015326;23;20501;-94
2023/01/01 11:26:32;;;;;;;17.05;15.25;;;16.40;99.90;;;;;;6281089;22;20098;-93
2023/01/01 11:53:04;;;;;;;;;;;;;;;;;;;;;
2023/01/01 11:56:19;;;;;;;16.92;15.32;;;16.70;99.90;;;;;;6255107;22;20008;-93
2023/01/01 11:59:41;;;;;;;29.20;21.07;;;16.50;99.90;;;;;;6228894;22;20430;-94
2023/01/01 12:06:45;;;;;;;19.40;17.35;;;16.70;99.90;;;;;;6126624;23;20006;-93
2023/01/01 12:17:42;;;;;;;;;;;;;;;;;;;;;
2023/01/01 12:24:41;;;;;;;18.33;16.52;;;16.70;99.90;;;;;;5988863;23;20020;-92
2023/01/01 12:27:51;;;;;;;14.85;13.18;;;16.80;99.90;;;;;;5934609;24;20032;-93
2023/01/01 12:31:12;;;;;;;15.80;14.30;;;16.80;99.90;;;;;;5938669;24;20113;-94
2023/01/01 12:40:41;;;;;;;17.67;16.15;;;16.60;99.90;;;;;;6315976;22;20107;-92
2023/01/01 12:43:16;;;;;;;14.90;13.60;;;16.80;99.90;;;;;;6257651;22;20475;-94
2023/01/01 12:46:06;;;;;;;;;;;16.90;99.90;;;;;;6282586;22;20027;-93
2023/01/01 12:48:36;;;;;;;14.80;13.70;;;17.00;99.90;;;;;;6282576;22;19909;-93
2023/01/01 12:51:32;;;;;;;16.13;14.52;;;16.90;99.90;;;;;;6257374;22;20030;-92
2023/01/01 12:54:15;;;;;;;16.45;14.70;;;16.90;99.90;;;;;;6232755;22;20007;-93
2023/01/01 12:56:52;;;;;;;18.10;16.50;;;16.50;99.90;;;;;;6259382;22;20120;-93
2023/01/01 12:59:47;;;;;;;16.00;14.40;;;16.40;99.90;;;;;;6284475;22;20011;-93
2023/01/01 15:03:35;;;;;;;;;;;;;;;;;;;;;
2023/01/01 15:07:07;;;;;;;;;;;;;;;;;;;;;
2023/01/01 15:10:58;;;;;;;;;;;;;;;;;;;;;
2023/01/01 15:14:34;;;;;;;19.77;16.90;;;14.60;99.90;;;;;;5929701;24;20013;-93
2023/01/01 15:21:43;;;;;;;19.33;17.30;;;14.30;99.90;;;;;;5823124;24;20083;-94
2023/01/01 15:24:43;;;;;;;19.00;17.10;;;14.20;99.90;;;;;;5828021;24;20015;-93
2023/01/01 15:27:34;;;;;;;18.73;16.90;;;14.10;99.90;;;;;;5816120;24;20025;-93
2023/01/01 15:30:30;;;;;;;20.40;18.15;;;14.00;99.90;;;;;;5795210;24;20011;-93
2023/01/01 15:33:46;;;;;;;28.33;19.05;;;13.90;99.90;;;;;;5793151;24;20400;-95
2023/01/01 15:39:35;;;;;;;25.85;22.17;;;13.80;99.90;;;;;;5803357;24;20011;-94
2023/01/01 15:42:29;;;;;;;25.73;22.67;;;13.80;99.90;;;;;;5820706;24;20031;-93
2023/01/01 15:45:22;;;;;;;27.27;23.63;;;13.60;99.90;;;;;;5848374;24;20015;-93
2023/01/01 15:56:25;;;;;;;31.38;23.38;;;13.50;99.90;;;;;;6173368;23;20020;-94
2023/01/01 16:05:47;;;;;;;;;;;;;;;;;;;;;
2023/01/01 16:09:24;;;;;;;;;;;;;;;;;;;;;
2023/01/01 16:12:23;;;;;;;32.45;25.88;;;13.20;99.90;;;;;;6163985;23;20021;-92
2023/01/01 16:29:30;;;;;;;57.05;37.13;;;12.90;99.90;;;;;;6201472;23;20068;-94
2023/01/01 16:32:26;;;;;;;47.10;35.95;;;12.80;99.90;;;;;;6157555;23;20016;-93
2023/01/01 16:34:55;;;;;;;56.22;41.05;;;12.70;99.90;;;;;;6133128;23;20005;-92
2023/01/01 16:37:43;;;;;;;64.03;45.22;;;12.80;99.90;;;;;;6130772;23;20010;-93
2023/01/01 16:40:30;;;;;;;68.03;45.90;;;12.80;99.90;;;;;;6176127;22;20068;-92
2023/01/01 16:43:45;;;;;;;63.45;46.17;;;12.80;99.90;;;;;;6195211;23;20024;-94
2023/01/01 16:46:46;;;;;;;64.55;45.72;;;12.80;99.90;;;;;;6173526;23;20429;-92
2023/01/01 16:49:13;;;;;;;62.03;45.03;;;12.70;99.90;;;;;;6190963;23;20427;-91
2023/01/01 16:51:40;;;;;;;68.57;47.10;;;12.70;99.90;;;;;;6185527;23;20008;-93
2023/01/01 16:54:07;;;;;;;70.93;49.53;;;12.70;99.90;;;;;;6160777;23;20504;-91
2023/01/01 16:56:34;;;;;;;76.68;52.80;;;12.60;99.90;;;;;;6160634;23;20025;-91
2023/01/01 16:59:01;;;;;;;67.95;47.40;;;12.60;99.90;;;;;;6160933;23;20075;-91
2023/01/01 17:01:28;;;;;;;82.40;56.92;;;12.50;99.90;;;;;;6160589;23;20013;-91
2023/01/01 17:03:58;;;;;;;84.80;56.92;;;12.40;99.90;;;;;;6160945;23;20008;-91
2023/01/01 17:06:25;;;;;;;95.22;62.92;;;12.40;99.90;;;;;;6161076;23;20009;-90
2023/01/01 17:08:52;;;;;;;82.40;59.40;;;12.50;99.90;;;;;;6162024;23;20005;-91
2023/01/01 17:11:23;;;;;;;94.93;62.05;;;12.50;99.90;;;;;;6161958;23;20083;-91
2023/01/01 17:13:50;;;;;;;86.28;58.08;;;12.40;99.90;;;;;;6161301;23;20017;-90
2023/01/01 17:16:23;;;;;;;84.53;58.38;;;12.30;99.90;;;;;;6160826;23;20005;-92
2023/01/01 17:19:00;;;;;;;91.82;61.78;;;12.30;99.90;;;;;;6163817;23;20010;-92
2023/01/01 17:21:30;;;;;;;80.45;53.28;;;12.30;99.90;;;;;;6163171;23;20017;-90
2023/01/01 17:23:57;;;;;;;86.20;58.83;;;12.40;99.90;;;;;;6160658;23;20020;-92
2023/01/01 17:26:26;;;;;;;81.90;55.78;;;12.40;99.90;;;;;;6163616;23;20006;-92
2023/01/01 17:28:53;;;;;;;90.65;57.65;;;12.50;99.90;;;;;;6161535;23;20054;-91
2023/01/01 17:31:21;;;;;;;86.40;55.30;;;12.40;99.90;;;;;;6159738;23;20048;-92
2023/01/01 17:33:49;;;;;;;74.07;50.05;;;12.30;99.90;;;;;;6161007;23;20109;-93
2023/01/01 17:36:16;;;;;;;78.30;54.72;;;12.10;99.90;;;;;;6186852;23;20331;-91
2023/01/01 17:38:46;;;;;;;251.77;140.50;;;12.00;99.90;;;;;;6160536;23;20016;-92
2023/01/01 17:41:15;;;;;;;127.47;72.55;;;11.90;99.90;;;;;;6169167;23;20025;-93
2023/01/01 17:43:49;;;;;;;82.80;52.30;;;11.80;99.90;;;;;;6215551;23;20065;-90
2023/01/01 17:46:24;;;;;;;83.53;51.92;;;11.70;99.90;;;;;;6191214;23;20005;-91
2023/01/01 17:48:52;;;;;;;79.50;52.45;;;11.60;99.90;;;;;;6191186;23;20099;-92
2023/01/01 17:51:20;;;;;;;85.00;56.13;;;11.50;99.90;;;;;;6190876;23;20021;-92
2023/01/01 17:53:47;;;;;;;98.13;63.40;;;11.50;99.90;;;;;;6189852;23;20184;-91
2023/01/01 17:56:18;;;;;;;85.38;55.25;;;11.60;99.90;;;;;;6189751;23;20011;-89
2023/01/01 17:58:46;;;;;;;80.05;53.97;;;11.60;99.90;;;;;;6165853;23;20013;-91
2023/01/01 18:01:12;;;;;;;75.43;52.00;;;11.50;99.90;;;;;;6191354;23;20009;-94
2023/01/01 18:03:42;;;;;;;84.15;55.08;;;11.40;99.90;;;;;;6191569;23;20013;-91
2023/01/01 18:06:08;;;;;;;89.10;54.40;;;11.30;99.90;;;;;;6191848;23;20009;-91
2023/01/01 18:08:35;;;;;;;90.53;58.45;;;11.20;99.90;;;;;;6191858;23;20054;-92
2023/01/01 18:11:02;;;;;;;84.32;56.53;;;11.10;99.90;;;;;;6192057;23;20311;-91
2023/01/01 18:13:28;;;;;;;89.32;60.35;;;11.10;99.90;;;;;;6238281;22;20433;-92
2023/01/01 18:16:00;;;;;;;89.95;58.67;;;11.00;99.90;;;;;;6282963;22;20014;-91